sensor_id;sensor_type;location;lat;lon;timestamp;temperature;humidity
43987;DHT22;29650;47.378;8.300;2023-04-03T00:01:32;8.40;99.90
43987;DHT22;29650;47.378;8.300;2023-04-03T00:04:00;8.40;99.90
43987;DHT22;29650;47.378;8.300;2023-04-03T00:06:27;8.20;99.90
43987;DHT22;29650;47.378;8.300;2023-04-03T00:08:54;8.30;99.90
43987;DHT22;29650;47.378;8.300;2023-04-03T00:11:21;8.40;99.90
43987;DHT22;29650;47.378;8.300;2023-04-03T00:13:48;8.30;99.90
43987;DHT22;29650;47.378;8.300;2023-04-03T00:16:15;8.10;99.90
43987;DHT22;29650;47.378;8.300;2023-04-03T00:18:43;8.10;99.90
43987;DHT22;29650;47.378;8.300;2023-04-03T00:21:12;8.10;99.90
43987;DHT22;29650;47.378;8.300;2023-04-03T00:23:39;8.10;99.90
43987;DHT22;29650;47.378;8.300;2023-04-03T00:26:06;8.10;99.90
43987;DHT22;29650;47.378;8.300;2023-04-03T00:28:33;8.00;99.90
43987;DHT22;29650;47.378;8.300;2023-04-03T00:31:00;7.90;99.90
43987;DHT22;29650;47.378;8.300;2023-04-03T00:33:27;8.00;99.90
43987;DHT22;29650;47.378;8.300;2023-04-03T00:35:54;8.00;99.90
43987;DHT22;29650;47.378;8.300;2023-04-03T00:38:22;7.90;99.90
43987;DHT22;29650;47.378;8.300;2023-04-03T00:40:49;8.00;99.90
43987;DHT22;29650;47.378;8.300;2023-04-03T00:43:18;8.10;99.90
43987;DHT22;29650;47.378;8.300;2023-04-03T00:45:45;8.00;99.90
43987;DHT22;29650;47.378;8.300;2023-04-03T00:48:16;7.90;99.90
43987;DHT22;29650;47.378;8.300;2023-04-03T00:50:45;7.90;99.90
43987;DHT22;29650;47.378;8.300;2023-04-03T00:53:16;8.00;99.90
43987;DHT22;29650;47.378;8.300;2023-04-03T00:55:47;8.00;99.90
43987;DHT22;29650;47.378;8.300;2023-04-03T00:58:15;7.80;99.90
43987;DHT22;29650;47.378;8.300;2023-04-03T01:00:48;8.00;99.90
43987;DHT22;29650;47.378;8.300;2023-04-03T01:03:21;8.10;99.90
43987;DHT22;29650;47.378;8.300;2023-04-03T01:05:48;8.00;99.90
43987;DHT22;29650;47.378;8.300;2023-04-03T01:08:16;8.10;99.90
43987;DHT22;29650;47.378;8.300;2023-04-03T01:10:43;7.80;99.90
43987;DHT22;29650;47.378;8.300;2023-04-03T01:13:26;7.80;99.90
43987;DHT22;29650;47.378;8.300;2023-04-03T01:15:54;7.90;99.90
43987;DHT22;29650;47.378;8.300;2023-04-03T01:18:22;7.80;99.90
43987;DHT22;29650;47.378;8.300;2023-04-03T01:21:00;7.60;99.90
43987;DHT22;29650;47.378;8.300;2023-04-03T01:23:40;7.50;99.90
43987;DHT22;29650;47.378;8.300;2023-04-03T01:26:10;7.30;99.90
43987;DHT22;29650;47.378;8.300;2023-04-03T01:28:39;7.30;99.90
43987;DHT22;29650;47.378;8.300;2023-04-03T01:31:13;7.20;99.90
43987;DHT22;29650;47.378;8.300;2023-04-03T01:33:43;7.20;99.90
43987;DHT22;29650;47.378;8.300;2023-04-03T01:36:14;7.20;99.90
43987;DHT22;29650;47.378;8.300;2023-04-03T01:38:41;7.10;99.90
43987;DHT22;29650;47.378;8.300;2023-04-03T01:41:08;7.20;99.90
43987;DHT22;29650;47.378;8.300;2023-04-03T01:43:35;7.00;99.90
43987;DHT22;29650;47.378;8.300;2023-04-03T01:46:02;6.90;99.90
43987;DHT22;29650;47.378;8.300;2023-04-03T01:48:29;6.80;99.90
43987;DHT22;29650;47.378;8.300;2023-04-03T01:50:57;6.60;99.90
43987;DHT22;29650;47.378;8.300;2023-04-03T01:53:24;6.50;99.90
43987;DHT22;29650;47.378;8.300;2023-04-03T01:55:51;6.50;99.90
43987;DHT22;29650;47.378;8.300;2023-04-03T01:58:18;6.50;99.90
43987;DHT22;29650;47.378;8.300;2023-04-03T02:00:45;6.50;99.90
43987;DHT22;29650;47.378;8.300;2023-04-03T02:03:12;6.40;99.90
43987;DHT22;29650;47.378;8.300;2023-04-03T02:05:39;6.60;99.90
43987;DHT22;29650;47.378;8.300;2023-04-03T02:08:07;6.60;99.90
43987;DHT22;29650;47.378;8.300;2023-04-03T02:10:34;6.60;99.90
43987;DHT22;29650;47.378;8.300;2023-04-03T02:13:01;6.60;99.90
43987;DHT22;29650;47.378;8.300;2023-04-03T02:15:28;6.60;99.90
43987;DHT22;29650;47.378;8.300;2023-04-03T02:17:55;6.50;99.90
43987;DHT22;29650;47.378;8.300;2023-04-03T02:20:22;6.40;99.90
43987;DHT22;29650;47.378;8.300;2023-04-03T02:22:49;6.30;99.90
43987;DHT22;29650;47.378;8.300;2023-04-03T02:25:17;6.20;99.90
43987;DHT22;29650;47.378;8.300;2023-04-03T02:27:44;6.20;99.90
43987;DHT22;29650;47.378;8.300;2023-04-03T02:30:11;6.20;99.90
43987;DHT22;29650;47.378;8.300;2023-04-03T02:32:40;6.40;99.90
43987;DHT22;29650;47.378;8.300;2023-04-03T02:35:08;6.30;99.90
43987;DHT22;29650;47.378;8.300;2023-04-03T02:37:35;6.20;99.90
43987;DHT22;29650;47.378;8.300;2023-04-03T02:40:03;6.10;99.90
43987;DHT22;29650;47.378;8.300;2023-04-03T02:42:33;6.10;99.90
43987;DHT22;29650;47.378;8.300;2023-04-03T02:44:59;6.30;99.90
43987;DHT22;29650;47.378;8.300;2023-04-03T02:47:27;6.30;99.90
43987;DHT22;29650;47.378;8.300;2023-04-03T02:49:54;6.20;99.90
43987;DHT22;29650;47.378;8.300;2023-04-03T02:52:21;6.10;99.90
43987;DHT22;29650;47.378;8.300;2023-04-03T02:54:48;6.20;99.90
43987;DHT22;29650;47.378;8.300;2023-04-03T02:57:15;5.90;99.90
43987;DHT22;29650;47.378;8.300;2023-04-03T02:59:43;5.90;99.90
43987;DHT22;29650;47.378;8.300;2023-04-03T03:02:10;6.10;99.90
43987;DHT22;29650;47.378;8.300;2023-04-03T03:04:37;6.20;99.90
43987;DHT22;29650;47.378;8.300;2023-04-03T03:07:04;6.10;99.90
43987;DHT22;29650;47.378;8.300;2023-04-03T03:09:33;6.00;99.90
43987;DHT22;29650;47.378;8.300;2023-04-03T03:11:59;6.10;99.90
43987;DHT22;29650;47.378;8.300;2023-04-03T03:14:26;6.20;99.90
43987;DHT22;29650;47.378;8.300;2023-04-03T03:16:55;5.80;99.90
43987;DHT22;29650;47.378;8.300;2023-04-03T03:19:21;6.10;99.90
43987;DHT22;29650;47.378;8.300;2023-04-03T03:21:48;6.00;99.90
43987;DHT22;29650;47.378;8.300;2023-04-03T03:24:15;6.10;99.90
43987;DHT22;29650;47.378;8.300;2023-04-03T03:26:42;6.00;99.90
43987;DHT22;29650;47.378;8.300;2023-04-03T03:29:10;5.90;99.90
43987;DHT22;29650;47.378;8.300;2023-04-03T03:31:36;6.20;99.90
43987;DHT22;29650;47.378;8.300;2023-04-03T03:34:05;6.10;99.90
43987;DHT22;29650;47.378;8.300;2023-04-03T03:36:32;5.90;99.90
43987;DHT22;29650;47.378;8.300;2023-04-03T03:38:59;5.90;99.90
43987;DHT22;29650;47.378;8.300;2023-04-03T03:41:25;6.00;99.90
43987;DHT22;29650;47.378;8.300;2023-04-03T03:43:52;6.00;99.90
43987;DHT22;29650;47.378;8.300;2023-04-03T03:46:19;6.00;99.90
43987;DHT22;29650;47.378;8.300;2023-04-03T03:48:46;5.90;99.90
43987;DHT22;29650;47.378;8.300;2023-04-03T03:51:15;6.10;99.90
43987;DHT22;29650;47.378;8.300;2023-04-03T03:53:42;5.90;99.90
43987;DHT22;29650;47.378;8.300;2023-04-03T03:56:09;5.90;99.90
43987;DHT22;29650;47.378;8.300;2023-04-03T03:58:36;6.10;99.90
43987;DHT22;29650;47.378;8.300;2023-04-03T04:01:03;6.10;99.90
43987;DHT22;29650;47.378;8.300;2023-04-03T04:03:31;5.80;99.90
43987;DHT22;29650;47.378;8.300;2023-04-03T04:05:58;5.80;99.90
43987;DHT22;29650;47.378;8.300;2023-04-03T04:08:26;5.50;99.90
43987;DHT22;29650;47.378;8.300;2023-04-03T04:10:53;5.60;99.90
43987;DHT22;29650;47.378;8.300;2023-04-03T04:13:20;5.80;99.90
43987;DHT22;29650;47.378;8.300;2023-04-03T04:15:47;5.90;99.90
43987;DHT22;29650;47.378;8.300;2023-04-03T04:18:14;6.10;99.90
43987;DHT22;29650;47.378;8.300;2023-04-03T04:20:41;5.90;99.90
43987;DHT22;29650;47.378;8.300;2023-04-03T04:23:08;5.90;99.90
43987;DHT22;29650;47.378;8.300;2023-04-03T04:25:36;5.80;99.90
43987;DHT22;29650;47.378;8.300;2023-04-03T04:28:03;5.70;99.90
43987;DHT22;29650;47.378;8.300;2023-04-03T04:30:30;5.70;99.90
43987;DHT22;29650;47.378;8.300;2023-04-03T04:32:57;5.70;99.90
43987;DHT22;29650;47.378;8.300;2023-04-03T04:35:25;5.80;99.90
43987;DHT22;29650;47.378;8.300;2023-04-03T04:37:52;5.80;99.90
43987;DHT22;29650;47.378;8.300;2023-04-03T04:40:19;5.80;99.90
43987;DHT22;29650;47.378;8.300;2023-04-03T04:42:47;5.80;99.90
43987;DHT22;29650;47.378;8.300;2023-04-03T04:45:14;5.50;99.90
43987;DHT22;29650;47.378;8.300;2023-04-03T04:47:41;5.60;99.90
43987;DHT22;29650;47.378;8.300;2023-04-03T04:50:09;5.50;99.90
43987;DHT22;29650;47.378;8.300;2023-04-03T04:52:36;5.70;99.90
43987;DHT22;29650;47.378;8.300;2023-04-03T04:55:04;5.80;99.90
43987;DHT22;29650;47.378;8.300;2023-04-03T04:57:31;5.60;99.90
43987;DHT22;29650;47.378;8.300;2023-04-03T04:59:59;5.50;99.90
43987;DHT22;29650;47.378;8.300;2023-04-03T05:02:26;5.20;99.90
43987;DHT22;29650;47.378;8.300;2023-04-03T05:04:53;5.30;99.90
43987;DHT22;29650;47.378;8.300;2023-04-03T05:07:20;5.30;99.90
43987;DHT22;29650;47.378;8.300;2023-04-03T05:09:47;4.90;98.60
43987;DHT22;29650;47.378;8.300;2023-04-03T05:12:14;5.10;99.10
43987;DHT22;29650;47.378;8.300;2023-04-03T05:14:41;5.00;99.40
43987;DHT22;29650;47.378;8.300;2023-04-03T05:17:09;5.00;97.10
43987;DHT22;29650;47.378;8.300;2023-04-03T05:19:36;4.80;97.80
43987;DHT22;29650;47.378;8.300;2023-04-03T05:22:03;5.00;97.00
43987;DHT22;29650;47.378;8.300;2023-04-03T05:24:30;4.90;96.80
43987;DHT22;29650;47.378;8.300;2023-04-03T05:26:57;4.70;96.90
43987;DHT22;29650;47.378;8.300;2023-04-03T05:29:24;4.70;97.20
43987;DHT22;29650;47.378;8.300;2023-04-03T05:31:51;4.60;97.50
43987;DHT22;29650;47.378;8.300;2023-04-03T05:34:19;5.00;96.40
43987;DHT22;29650;47.378;8.300;2023-04-03T05:36:46;4.70;96.40
43987;DHT22;29650;47.378;8.300;2023-04-03T05:39:13;4.80;96.40
43987;DHT22;29650;47.378;8.300;2023-04-03T05:41:40;4.80;94.30
43987;DHT22;29650;47.378;8.300;2023-04-03T05:44:07;4.70;94.40
43987;DHT22;29650;47.378;8.300;2023-04-03T05:46:34;4.60;94.60
43987;DHT22;29650;47.378;8.300;2023-04-03T05:49:01;4.90;95.40
43987;DHT22;29650;47.378;8.300;2023-04-03T05:51:32;4.90;95.90
43987;DHT22;29650;47.378;8.300;2023-04-03T05:54:04;4.90;94.50
43987;DHT22;29650;47.378;8.300;2023-04-03T05:56:32;4.90;95.00
43987;DHT22;29650;47.378;8.300;2023-04-03T05:58:59;4.80;94.10
43987;DHT22;29650;47.378;8.300;2023-04-03T06:01:26;4.90;94.80
43987;DHT22;29650;47.378;8.300;2023-04-03T06:03:53;4.80;94.60
43987;DHT22;29650;47.378;8.300;2023-04-03T06:06:21;4.90;94.30
43987;DHT22;29650;47.378;8.300;2023-04-03T06:08:50;4.80;94.50
43987;DHT22;29650;47.378;8.300;2023-04-03T06:11:17;5.10;94.50
43987;DHT22;29650;47.378;8.300;2023-04-03T06:13:44;4.70;95.00
43987;DHT22;29650;47.378;8.300;2023-04-03T06:16:12;4.90;94.90
43987;DHT22;29650;47.378;8.300;2023-04-03T06:18:40;4.70;95.50
43987;DHT22;29650;47.378;8.300;2023-04-03T06:21:08;5.10;95.70
43987;DHT22;29650;47.378;8.300;2023-04-03T06:23:35;5.00;94.50
43987;DHT22;29650;47.378;8.300;2023-04-03T06:26:03;4.80;94.20
43987;DHT22;29650;47.378;8.300;2023-04-03T06:28:31;4.80;92.20
43987;DHT22;29650;47.378;8.300;2023-04-03T06:30:58;4.90;91.60
43987;DHT22;29650;47.378;8.300;2023-04-03T06:33:25;4.70;90.70
43987;DHT22;29650;47.378;8.300;2023-04-03T06:35:56;4.70;91.00
43987;DHT22;29650;47.378;8.300;2023-04-03T06:38:23;4.60;91.10
43987;DHT22;29650;47.378;8.300;2023-04-03T06:40:50;4.90;89.80
43987;DHT22;29650;47.378;8.300;2023-04-03T06:43:20;4.90;90.30
43987;DHT22;29650;47.378;8.300;2023-04-03T06:45:47;4.70;90.50
43987;DHT22;29650;47.378;8.300;2023-04-03T06:48:14;4.90;88.80
43987;DHT22;29650;47.378;8.300;2023-04-03T06:50:41;4.90;86.40
43987;DHT22;29650;47.378;8.300;2023-04-03T06:53:09;5.00;88.70
43987;DHT22;29650;47.378;8.300;2023-04-03T06:55:37;5.00;89.70
43987;DHT22;29650;47.378;8.300;2023-04-03T06:58:04;5.00;89.90
43987;DHT22;29650;47.378;8.300;2023-04-03T07:00:33;5.10;88.40
43987;DHT22;29650;47.378;8.300;2023-04-03T07:03:00;4.90;90.40
43987;DHT22;29650;47.378;8.300;2023-04-03T07:05:27;4.80;90.30
43987;DHT22;29650;47.378;8.300;2023-04-03T07:07:54;4.70;89.40
43987;DHT22;29650;47.378;8.300;2023-04-03T07:10:21;4.70;89.60
43987;DHT22;29650;47.378;8.300;2023-04-03T07:12:48;4.70;88.40
43987;DHT22;29650;47.378;8.300;2023-04-03T07:15:15;4.70;89.50
43987;DHT22;29650;47.378;8.300;2023-04-03T07:17:43;4.90;89.10
43987;DHT22;29650;47.378;8.300;2023-04-03T07:20:11;5.10;87.20
43987;DHT22;29650;47.378;8.300;2023-04-03T07:22:38;4.80;87.60
43987;DHT22;29650;47.378;8.300;2023-04-03T07:25:06;4.80;88.10
43987;DHT22;29650;47.378;8.300;2023-04-03T07:27:33;4.90;86.40
43987;DHT22;29650;47.378;8.300;2023-04-03T07:30:00;4.80;85.50
43987;DHT22;29650;47.378;8.300;2023-04-03T07:32:29;4.90;85.30
43987;DHT22;29650;47.378;8.300;2023-04-03T07:34:57;4.80;86.40
43987;DHT22;29650;47.378;8.300;2023-04-03T07:37:25;4.90;86.00
43987;DHT22;29650;47.378;8.300;2023-04-03T07:39:52;5.00;86.80
43987;DHT22;29650;47.378;8.300;2023-04-03T07:42:20;5.20;84.30
43987;DHT22;29650;47.378;8.300;2023-04-03T07:44:47;5.20;85.70
43987;DHT22;29650;47.378;8.300;2023-04-03T07:47:14;5.20;82.10
43987;DHT22;29650;47.378;8.300;2023-04-03T07:49:42;4.80;80.60
43987;DHT22;29650;47.378;8.300;2023-04-03T07:52:11;5.00;81.70
43987;DHT22;29650;47.378;8.300;2023-04-03T07:54:39;4.90;83.90
43987;DHT22;29650;47.378;8.300;2023-04-03T07:57:06;5.10;82.20
43987;DHT22;29650;47.378;8.300;2023-04-03T07:59:33;5.00;80.90
43987;DHT22;29650;47.378;8.300;2023-04-03T08:02:00;4.90;78.80
43987;DHT22;29650;47.378;8.300;2023-04-03T08:04:27;4.90;80.70
43987;DHT22;29650;47.378;8.300;2023-04-03T08:06:54;4.90;80.70
43987;DHT22;29650;47.378;8.300;2023-04-03T08:09:22;4.90;81.10
43987;DHT22;29650;47.378;8.300;2023-04-03T08:11:49;4.90;80.80
43987;DHT22;29650;47.378;8.300;2023-04-03T08:14:18;5.10;81.90
43987;DHT22;29650;47.378;8.300;2023-04-03T08:16:47;5.30;81.90
43987;DHT22;29650;47.378;8.300;2023-04-03T08:19:15;5.20;80.40
43987;DHT22;29650;47.378;8.300;2023-04-03T08:21:43;5.20;81.20
43987;DHT22;29650;47.378;8.300;2023-04-03T08:24:11;5.10;77.20
43987;DHT22;29650;47.378;8.300;2023-04-03T08:26:39;5.30;78.30
43987;DHT22;29650;47.378;8.300;2023-04-03T08:29:06;5.40;79.20
43987;DHT22;29650;47.378;8.300;2023-04-03T08:31:33;5.40;77.70
43987;DHT22;29650;47.378;8.300;2023-04-03T08:34:00;5.30;78.80
43987;DHT22;29650;47.378;8.300;2023-04-03T08:36:28;5.40;76.40
43987;DHT22;29650;47.378;8.300;2023-04-03T08:38:56;5.50;77.20
43987;DHT22;29650;47.378;8.300;2023-04-03T08:41:29;5.90;77.00
43987;DHT22;29650;47.378;8.300;2023-04-03T08:44:07;5.50;74.70
43987;DHT22;29650;47.378;8.300;2023-04-03T08:46:47;5.20;76.70
43987;DHT22;29650;47.378;8.300;2023-04-03T08:49:22;5.50;76.10
43987;DHT22;29650;47.378;8.300;2023-04-03T08:51:51;5.80;76.20
43987;DHT22;29650;47.378;8.300;2023-04-03T08:54:28;5.90;79.40
43987;DHT22;29650;47.378;8.300;2023-04-03T08:56:58;5.90;75.00
43987;DHT22;29650;47.378;8.300;2023-04-03T08:59:32;6.10;77.90
43987;DHT22;29650;47.378;8.300;2023-04-03T09:02:04;6.00;73.90
43987;DHT22;29650;47.378;8.300;2023-04-03T09:04:32;5.90;74.80
43987;DHT22;29650;47.378;8.300;2023-04-03T09:07:07;6.00;76.80
43987;DHT22;29650;47.378;8.300;2023-04-03T09:09:38;6.00;78.00
43987;DHT22;29650;47.378;8.300;2023-04-03T09:12:15;5.90;73.80
43987;DHT22;29650;47.378;8.300;2023-04-03T09:14:49;6.10;73.70
43987;DHT22;29650;47.378;8.300;2023-04-03T09:17:26;6.00;73.10
43987;DHT22;29650;47.378;8.300;2023-04-03T09:20:00;6.00;72.80
43987;DHT22;29650;47.378;8.300;2023-04-03T09:22:31;6.00;73.20
43987;DHT22;29650;47.378;8.300;2023-04-03T09:25:03;6.00;75.00
43987;DHT22;29650;47.378;8.300;2023-04-03T09:27:33;6.30;73.50
43987;DHT22;29650;47.378;8.300;2023-04-03T09:30:02;6.40;75.70
43987;DHT22;29650;47.378;8.300;2023-04-03T09:32:31;6.40;73.50
43987;DHT22;29650;47.378;8.300;2023-04-03T09:35:01;6.30;72.30
43987;DHT22;29650;47.378;8.300;2023-04-03T09:37:39;6.30;72.00
43987;DHT22;29650;47.378;8.300;2023-04-03T09:40:29;6.40;70.00
43987;DHT22;29650;47.378;8.300;2023-04-03T09:42:58;6.60;72.10
43987;DHT22;29650;47.378;8.300;2023-04-03T09:45:28;6.40;71.70
43987;DHT22;29650;47.378;8.300;2023-04-03T09:48:07;6.50;72.10
43987;DHT22;29650;47.378;8.300;2023-04-03T09:50:36;6.50;73.40
43987;DHT22;29650;47.378;8.300;2023-04-03T09:53:07;6.40;74.90
43987;DHT22;29650;47.378;8.300;2023-04-03T09:55:53;6.30;70.20
43987;DHT22;29650;47.378;8.300;2023-04-03T09:58:26;6.10;72.60
43987;DHT22;29650;47.378;8.300;2023-04-03T10:00:58;6.10;73.50
43987;DHT22;29650;47.378;8.300;2023-04-03T10:03:28;6.20;72.80
43987;DHT22;29650;47.378;8.300;2023-04-03T10:05:56;6.30;73.50
43987;DHT22;29650;47.378;8.300;2023-04-03T10:08:26;6.60;71.20
43987;DHT22;29650;47.378;8.300;2023-04-03T10:11:13;6.70;69.00
43987;DHT22;29650;47.378;8.300;2023-04-03T10:13:54;6.60;70.70
43987;DHT22;29650;47.378;8.300;2023-04-03T10:16:26;6.60;74.20
43987;DHT22;29650;47.378;8.300;2023-04-03T10:19:05;6.60;71.30
43987;DHT22;29650;47.378;8.300;2023-04-03T10:21:43;6.50;69.30
43987;DHT22;29650;47.378;8.300;2023-04-03T10:24:14;6.70;70.20
43987;DHT22;29650;47.378;8.300;2023-04-03T10:26:52;6.60;68.90
43987;DHT22;29650;47.378;8.300;2023-04-03T10:29:31;6.80;70.50
43987;DHT22;29650;47.378;8.300;2023-04-03T10:32:08;6.70;69.50
43987;DHT22;29650;47.378;8.300;2023-04-03T10:34:41;6.60;68.90
43987;DHT22;29650;47.378;8.300;2023-04-03T10:37:16;6.70;69.90
43987;DHT22;29650;47.378;8.300;2023-04-03T10:39:51;6.70;67.60
43987;DHT22;29650;47.378;8.300;2023-04-03T10:42:26;6.50;70.10
43987;DHT22;29650;47.378;8.300;2023-04-03T10:45:10;6.60;68.00
43987;DHT22;29650;47.378;8.300;2023-04-03T10:47:47;6.70;69.10
43987;DHT22;29650;47.378;8.300;2023-04-03T10:50:28;6.70;67.00
43987;DHT22;29650;47.378;8.300;2023-04-03T10:53:02;6.70;68.80
43987;DHT22;29650;47.378;8.300;2023-04-03T10:55:35;6.60;68.20
43987;DHT22;29650;47.378;8.300;2023-04-03T10:58:06;6.50;69.40
43987;DHT22;29650;47.378;8.300;2023-04-03T11:00:39;6.70;67.00
43987;DHT22;29650;47.378;8.300;2023-04-03T11:03:12;6.80;70.80
43987;DHT22;29650;47.378;8.300;2023-04-03T11:05:43;6.80;69.90
43987;DHT22;29650;47.378;8.300;2023-04-03T11:08:15;6.80;70.80
43987;DHT22;29650;47.378;8.300;2023-04-03T11:10:48;6.90;69.00
43987;DHT22;29650;47.378;8.300;2023-04-03T11:13:20;7.10;68.10
43987;DHT22;29650;47.378;8.300;2023-04-03T11:15:51;7.00;69.10
43987;DHT22;29650;47.378;8.300;2023-04-03T11:18:21;7.20;67.50
43987;DHT22;29650;47.378;8.300;2023-04-03T11:20:57;6.90;68.00
43987;DHT22;29650;47.378;8.300;2023-04-03T11:23:29;6.90;69.30
43987;DHT22;29650;47.378;8.300;2023-04-03T11:26:04;5.70;67.10
43987;DHT22;29650;47.378;8.300;2023-04-03T11:28:34;6.90;68.80
43987;DHT22;29650;47.378;8.300;2023-04-03T11:31:02;7.00;70.60
43987;DHT22;29650;47.378;8.300;2023-04-03T11:33:44;6.80;69.90
43987;DHT22;29650;47.378;8.300;2023-04-03T11:36:18;7.00;69.10
43987;DHT22;29650;47.378;8.300;2023-04-03T11:38:47;7.00;68.20
43987;DHT22;29650;47.378;8.300;2023-04-03T11:41:17;7.20;69.70
43987;DHT22;29650;47.378;8.300;2023-04-03T11:43:59;7.10;68.70
43987;DHT22;29650;47.378;8.300;2023-04-03T11:46:49;6.90;71.20
43987;DHT22;29650;47.378;8.300;2023-04-03T11:52:56;7.10;69.60
43987;DHT22;29650;47.378;8.300;2023-04-03T11:55:55;7.20;72.10
43987;DHT22;29650;47.378;8.300;2023-04-03T11:58:24;7.20;71.40
43987;DHT22;29650;47.378;8.300;2023-04-03T12:00:56;7.50;70.90
43987;DHT22;29650;47.378;8.300;2023-04-03T12:04:08;7.40;71.00
43987;DHT22;29650;47.378;8.300;2023-04-03T12:06:51;7.40;67.90
43987;DHT22;29650;47.378;8.300;2023-04-03T12:09:25;7.40;68.30
43987;DHT22;29650;47.378;8.300;2023-04-03T12:11:52;7.70;68.30
43987;DHT22;29650;47.378;8.300;2023-04-03T12:14:22;7.60;70.10
43987;DHT22;29650;47.378;8.300;2023-04-03T12:16:53;7.30;68.90
43987;DHT22;29650;47.378;8.300;2023-04-03T12:19:36;7.00;68.50
43987;DHT22;29650;47.378;8.300;2023-04-03T12:22:11;7.10;68.50
43987;DHT22;29650;47.378;8.300;2023-04-03T12:24:39;7.00;68.20
43987;DHT22;29650;47.378;8.300;2023-04-03T12:27:28;7.20;70.20
43987;DHT22;29650;47.378;8.300;2023-04-03T12:30:04;7.20;70.40
43987;DHT22;29650;47.378;8.300;2023-04-03T12:32:54;7.40;69.00
43987;DHT22;29650;47.378;8.300;2023-04-03T12:35:28;7.20;70.10
43987;DHT22;29650;47.378;8.300;2023-04-03T12:38:17;7.40;68.80
43987;DHT22;29650;47.378;8.300;2023-04-03T12:40:51;7.30;68.10
43987;DHT22;29650;47.378;8.300;2023-04-03T12:43:41;7.40;69.10
43987;DHT22;29650;47.378;8.300;2023-04-03T12:46:13;7.30;67.80
43987;DHT22;29650;47.378;8.300;2023-04-03T12:48:49;7.50;68.80
43987;DHT22;29650;47.378;8.300;2023-04-03T12:51:19;7.60;68.20
43987;DHT22;29650;47.378;8.300;2023-04-03T12:53:47;7.30;69.80
43987;DHT22;29650;47.378;8.300;2023-04-03T12:56:23;7.10;71.20
43987;DHT22;29650;47.378;8.300;2023-04-03T12:58:52;7.30;69.60
43987;DHT22;29650;47.378;8.300;2023-04-03T13:01:22;7.20;68.40
43987;DHT22;29650;47.378;8.300;2023-04-03T13:03:53;7.30;70.90
43987;DHT22;29650;47.378;8.300;2023-04-03T13:06:22;7.40;68.60
43987;DHT22;29650;47.378;8.300;2023-04-03T13:08:52;7.40;69.30
43987;DHT22;29650;47.378;8.300;2023-04-03T13:11:20;7.50;69.90
43987;DHT22;29650;47.378;8.300;2023-04-03T13:13:56;7.60;72.90
43987;DHT22;29650;47.378;8.300;2023-04-03T13:16:23;7.40;66.90
43987;DHT22;29650;47.378;8.300;2023-04-03T13:18:53;7.40;66.80
43987;DHT22;29650;47.378;8.300;2023-04-03T13:21:23;7.30;66.40
43987;DHT22;29650;47.378;8.300;2023-04-03T13:23:53;7.60;66.00
43987;DHT22;29650;47.378;8.300;2023-04-03T13:26:22;7.70;66.50
43987;DHT22;29650;47.378;8.300;2023-04-03T13:28:52;7.50;65.40
43987;DHT22;29650;47.378;8.300;2023-04-03T13:31:22;7.60;65.10
43987;DHT22;29650;47.378;8.300;2023-04-03T13:33:57;7.70;65.00
43987;DHT22;29650;47.378;8.300;2023-04-03T13:36:29;7.90;66.60
43987;DHT22;29650;47.378;8.300;2023-04-03T13:39:03;8.10;66.50
43987;DHT22;29650;47.378;8.300;2023-04-03T13:41:32;8.10;64.60
43987;DHT22;29650;47.378;8.300;2023-04-03T13:44:15;8.10;64.60
43987;DHT22;29650;47.378;8.300;2023-04-03T13:46:43;7.90;66.00
43987;DHT22;29650;47.378;8.300;2023-04-03T13:49:20;7.80;68.40
43987;DHT22;29650;47.378;8.300;2023-04-03T13:51:47;8.00;66.40
43987;DHT22;29650;47.378;8.300;2023-04-03T13:54:20;7.80;65.60
43987;DHT22;29650;47.378;8.300;2023-04-03T13:56:54;7.80;65.00
43987;DHT22;29650;47.378;8.300;2023-04-03T13:59:24;7.40;68.40
43987;DHT22;29650;47.378;8.300;2023-04-03T14:01:53;7.40;67.00
43987;DHT22;29650;47.378;8.300;2023-04-03T14:04:23;7.30;67.90
43987;DHT22;29650;47.378;8.300;2023-04-03T14:06:51;7.30;67.50
43987;DHT22;29650;47.378;8.300;2023-04-03T14:09:20;7.20;68.60
43987;DHT22;29650;47.378;8.300;2023-04-03T14:11:47;7.20;67.30
43987;DHT22;29650;47.378;8.300;2023-04-03T14:14:18;7.20;66.00
43987;DHT22;29650;47.378;8.300;2023-04-03T14:16:48;7.10;67.40
43987;DHT22;29650;47.378;8.300;2023-04-03T14:19:24;7.10;65.90
43987;DHT22;29650;47.378;8.300;2023-04-03T14:21:52;7.00;66.50
43987;DHT22;29650;47.378;8.300;2023-04-03T14:24:21;7.20;67.40
43987;DHT22;29650;47.378;8.300;2023-04-03T14:26:49;7.20;66.40
43987;DHT22;29650;47.378;8.300;2023-04-03T14:29:16;7.30;65.50
43987;DHT22;29650;47.378;8.300;2023-04-03T14:31:45;7.30;65.60
43987;DHT22;29650;47.378;8.300;2023-04-03T14:34:13;7.30;67.40
43987;DHT22;29650;47.378;8.300;2023-04-03T14:36:44;7.40;66.10
43987;DHT22;29650;47.378;8.300;2023-04-03T14:39:17;7.30;65.80
43987;DHT22;29650;47.378;8.300;2023-04-03T14:41:45;7.40;64.90
43987;DHT22;29650;47.378;8.300;2023-04-03T14:44:12;7.30;67.00
43987;DHT22;29650;47.378;8.300;2023-04-03T14:46:42;7.10;66.70
43987;DHT22;29650;47.378;8.300;2023-04-03T14:49:14;7.20;68.00
43987;DHT22;29650;47.378;8.300;2023-04-03T14:51:44;7.20;68.60
43987;DHT22;29650;47.378;8.300;2023-04-03T14:54:13;7.30;68.10
43987;DHT22;29650;47.378;8.300;2023-04-03T14:56:41;7.30;68.10
43987;DHT22;29650;47.378;8.300;2023-04-03T14:59:09;7.40;66.60
43987;DHT22;29650;47.378;8.300;2023-04-03T15:01:37;7.10;66.10
43987;DHT22;29650;47.378;8.300;2023-04-03T15:04:09;7.10;65.50
43987;DHT22;29650;47.378;8.300;2023-04-03T15:06:37;7.40;66.70
43987;DHT22;29650;47.378;8.300;2023-04-03T15:09:05;7.30;65.50
43987;DHT22;29650;47.378;8.300;2023-04-03T15:11:32;7.20;66.10
43987;DHT22;29650;47.378;8.300;2023-04-03T15:13:59;7.30;64.60
43987;DHT22;29650;47.378;8.300;2023-04-03T15:16:26;7.30;65.10
43987;DHT22;29650;47.378;8.300;2023-04-03T15:18:53;7.30;63.70
43987;DHT22;29650;47.378;8.300;2023-04-03T15:21:20;7.30;64.00
43987;DHT22;29650;47.378;8.300;2023-04-03T15:23:48;7.30;65.00
43987;DHT22;29650;47.378;8.300;2023-04-03T15:26:16;7.30;63.80
43987;DHT22;29650;47.378;8.300;2023-04-03T15:28:43;7.30;65.80
43987;DHT22;29650;47.378;8.300;2023-04-03T15:31:11;7.40;64.60
43987;DHT22;29650;47.378;8.300;2023-04-03T15:33:38;7.20;63.20
43987;DHT22;29650;47.378;8.300;2023-04-03T15:36:05;7.00;63.50
43987;DHT22;29650;47.378;8.300;2023-04-03T15:38:32;7.20;62.50
43987;DHT22;29650;47.378;8.300;2023-04-03T15:40:59;7.20;62.70
43987;DHT22;29650;47.378;8.300;2023-04-03T15:43:27;7.20;61.60
43987;DHT22;29650;47.378;8.300;2023-04-03T15:45:57;7.10;62.80
43987;DHT22;29650;47.378;8.300;2023-04-03T15:48:24;7.20;62.10
43987;DHT22;29650;47.378;8.300;2023-04-03T15:50:52;7.10;62.40
43987;DHT22;29650;47.378;8.300;2023-04-03T15:53:19;7.10;63.00
43987;DHT22;29650;47.378;8.300;2023-04-03T15:55:46;7.00;62.60
43987;DHT22;29650;47.378;8.300;2023-04-03T15:58:13;7.00;62.80
43987;DHT22;29650;47.378;8.300;2023-04-03T16:00:42;7.10;62.90
43987;DHT22;29650;47.378;8.300;2023-04-03T16:03:11;7.10;63.40
43987;DHT22;29650;47.378;8.300;2023-04-03T16:05:39;7.00;63.30